sensor_id;sensor_type;location;lat;lon;timestamp;P1;durP1;ratioP1;P2;durP2;ratioP2
14015;SDS011;7083;48.854;9.158;2024-03-25T00:01:43;4.50;;;3.40;;
14015;SDS011;7083;48.854;9.158;2024-03-25T00:04:10;6.77;;;3.80;;
14015;SDS011;7083;48.854;9.158;2024-03-25T00:06:35;3.63;;;3.33;;
14015;SDS011;7083;48.854;9.158;2024-03-25T00:09:03;7.20;;;3.93;;
14015;SDS011;7083;48.854;9.158;2024-03-25T00:11:29;3.57;;;3.27;;
14015;SDS011;7083;48.854;9.158;2024-03-25T00:13:55;4.53;;;3.70;;
14015;SDS011;7083;48.854;9.158;2024-03-25T00:16:21;5.33;;;3.80;;
14015;SDS011;7083;48.854;9.158;2024-03-25T00:18:49;3.97;;;3.57;;
14015;SDS011;7083;48.854;9.158;2024-03-25T00:21:15;3.90;;;3.60;;
14015;SDS011;7083;48.854;9.158;2024-03-25T00:23:42;3.20;;;3.00;;
14015;SDS011;7083;48.854;9.158;2024-03-25T00:26:07;5.30;;;3.37;;
14015;SDS011;7083;48.854;9.158;2024-03-25T00:28:34;5.40;;;3.60;;
14015;SDS011;7083;48.854;9.158;2024-03-25T00:31:00;4.70;;;3.00;;
14015;SDS011;7083;48.854;9.158;2024-03-25T00:33:26;4.90;;;3.60;;
14015;SDS011;7083;48.854;9.158;2024-03-25T00:35:54;3.77;;;3.57;;
14015;SDS011;7083;48.854;9.158;2024-03-25T00:38:21;5.00;;;3.83;;
14015;SDS011;7083;48.854;9.158;2024-03-25T00:40:47;5.23;;;3.60;;
14015;SDS011;7083;48.854;9.158;2024-03-25T00:43:14;3.30;;;3.03;;
14015;SDS011;7083;48.854;9.158;2024-03-25T00:45:39;4.07;;;3.80;;
14015;SDS011;7083;48.854;9.158;2024-03-25T00:48:06;5.83;;;3.70;;
14015;SDS011;7083;48.854;9.158;2024-03-25T00:50:33;3.73;;;3.43;;
14015;SDS011;7083;48.854;9.158;2024-03-25T00:53:01;4.43;;;3.73;;
14015;SDS011;7083;48.854;9.158;2024-03-25T00:55:26;4.80;;;3.47;;
14015;SDS011;7083;48.854;9.158;2024-03-25T00:57:53;6.93;;;3.57;;
14015;SDS011;7083;48.854;9.158;2024-03-25T01:00:19;4.73;;;3.40;;
14015;SDS011;7083;48.854;9.158;2024-03-25T01:02:46;4.10;;;3.53;;
14015;SDS011;7083;48.854;9.158;2024-03-25T01:05:12;4.00;;;3.60;;
14015;SDS011;7083;48.854;9.158;2024-03-25T01:07:38;8.23;;;3.80;;
14015;SDS011;7083;48.854;9.158;2024-03-25T01:10:06;6.73;;;4.40;;
14015;SDS011;7083;48.854;9.158;2024-03-25T01:12:33;4.90;;;3.83;;
14015;SDS011;7083;48.854;9.158;2024-03-25T01:14:59;3.80;;;3.50;;
14015;SDS011;7083;48.854;9.158;2024-03-25T01:17:27;4.47;;;4.07;;
14015;SDS011;7083;48.854;9.158;2024-03-25T01:19:52;4.70;;;4.30;;
14015;SDS011;7083;48.854;9.158;2024-03-25T01:22:19;3.93;;;3.60;;
14015;SDS011;7083;48.854;9.158;2024-03-25T01:24:45;4.63;;;4.10;;
14015;SDS011;7083;48.854;9.158;2024-03-25T01:27:13;4.97;;;4.50;;
14015;SDS011;7083;48.854;9.158;2024-03-25T01:29:38;6.17;;;4.57;;
14015;SDS011;7083;48.854;9.158;2024-03-25T01:32:05;6.97;;;4.63;;
14015;SDS011;7083;48.854;9.158;2024-03-25T01:34:31;6.20;;;4.10;;
14015;SDS011;7083;48.854;9.158;2024-03-25T01:36:58;4.30;;;3.93;;
14015;SDS011;7083;48.854;9.158;2024-03-25T01:39:24;7.97;;;3.93;;
14015;SDS011;7083;48.854;9.158;2024-03-25T01:41:51;4.70;;;4.30;;
14015;SDS011;7083;48.854;9.158;2024-03-25T01:44:18;3.87;;;3.53;;
14015;SDS011;7083;48.854;9.158;2024-03-25T01:46:44;4.37;;;4.00;;
14015;SDS011;7083;48.854;9.158;2024-03-25T01:49:11;4.47;;;3.47;;
14015;SDS011;7083;48.854;9.158;2024-03-25T01:51:37;4.03;;;3.73;;
14015;SDS011;7083;48.854;9.158;2024-03-25T01:54:06;3.97;;;3.67;;
14015;SDS011;7083;48.854;9.158;2024-03-25T01:56:33;3.70;;;3.33;;
14015;SDS011;7083;48.854;9.158;2024-03-25T01:59:00;5.30;;;4.90;;
14015;SDS011;7083;48.854;9.158;2024-03-25T02:01:28;4.00;;;3.60;;
14015;SDS011;7083;48.854;9.158;2024-03-25T02:03:55;3.97;;;3.57;;
14015;SDS011;7083;48.854;9.158;2024-03-25T02:06:21;4.13;;;3.83;;
14015;SDS011;7083;48.854;9.158;2024-03-25T02:08:50;3.97;;;3.57;;
14015;SDS011;7083;48.854;9.158;2024-03-25T02:11:17;4.63;;;3.50;;
14015;SDS011;7083;48.854;9.158;2024-03-25T02:13:45;5.13;;;3.77;;
14015;SDS011;7083;48.854;9.158;2024-03-25T02:16:11;3.90;;;3.60;;
14015;SDS011;7083;48.854;9.158;2024-03-25T02:18:39;2.93;;;2.83;;
14015;SDS011;7083;48.854;9.158;2024-03-25T02:21:05;4.83;;;3.77;;
14015;SDS011;7083;48.854;9.158;2024-03-25T02:23:31;3.50;;;3.20;;
14015;SDS011;7083;48.854;9.158;2024-03-25T02:26:00;7.60;;;3.50;;
14015;SDS011;7083;48.854;9.158;2024-03-25T02:28:27;3.63;;;3.33;;
14015;SDS011;7083;48.854;9.158;2024-03-25T02:30:53;3.20;;;3.00;;
14015;SDS011;7083;48.854;9.158;2024-03-25T02:33:19;5.87;;;4.37;;
14015;SDS011;7083;48.854;9.158;2024-03-25T02:35:45;4.53;;;4.10;;
14015;SDS011;7083;48.854;9.158;2024-03-25T02:38:12;3.63;;;3.33;;
14015;SDS011;7083;48.854;9.158;2024-03-25T02:40:40;4.20;;;3.90;;
14015;SDS011;7083;48.854;9.158;2024-03-25T02:43:09;3.73;;;3.43;;
14015;SDS011;7083;48.854;9.158;2024-03-25T02:45:36;6.00;;;5.17;;
14015;SDS011;7083;48.854;9.158;2024-03-25T02:48:03;4.70;;;3.50;;
14015;SDS011;7083;48.854;9.158;2024-03-25T02:50:30;4.17;;;3.77;;
14015;SDS011;7083;48.854;9.158;2024-03-25T02:52:57;4.27;;;3.87;;
14015;SDS011;7083;48.854;9.158;2024-03-25T02:55:22;4.40;;;3.97;;
14015;SDS011;7083;48.854;9.158;2024-03-25T02:57:49;5.73;;;4.77;;
14015;SDS011;7083;48.854;9.158;2024-03-25T07:19:04;7.43;;;6.73;;
14015;SDS011;7083;48.854;9.158;2024-03-25T07:21:30;8.77;;;6.27;;
14015;SDS011;7083;48.854;9.158;2024-03-25T07:23:56;7.50;;;6.80;;
14015;SDS011;7083;48.854;9.158;2024-03-25T07:26:21;7.77;;;5.67;;
14015;SDS011;7083;48.854;9.158;2024-03-25T07:28:47;9.30;;;7.33;;
14015;SDS011;7083;48.854;9.158;2024-03-25T07:31:13;9.67;;;6.87;;
14015;SDS011;7083;48.854;9.158;2024-03-25T07:33:39;9.90;;;6.77;;
14015;SDS011;7083;48.854;9.158;2024-03-25T07:36:06;7.60;;;6.70;;
14015;SDS011;7083;48.854;9.158;2024-03-25T07:38:32;8.30;;;6.27;;
14015;SDS011;7083;48.854;9.158;2024-03-25T07:41:02;9.87;;;6.93;;
14015;SDS011;7083;48.854;9.158;2024-03-25T07:43:28;8.70;;;7.87;;
14015;SDS011;7083;48.854;9.158;2024-03-25T07:45:54;12.00;;;6.27;;
14015;SDS011;7083;48.854;9.158;2024-03-25T07:48:20;11.70;;;6.50;;
14015;SDS011;7083;48.854;9.158;2024-03-25T07:50:46;10.93;;;6.37;;
14015;SDS011;7083;48.854;9.158;2024-03-25T07:53:13;6.60;;;5.60;;
14015;SDS011;7083;48.854;9.158;2024-03-25T07:55:39;6.10;;;5.50;;
14015;SDS011;7083;48.854;9.158;2024-03-25T07:58:05;6.63;;;5.23;;
14015;SDS011;7083;48.854;9.158;2024-03-25T08:00:31;6.73;;;4.93;;
14015;SDS011;7083;48.854;9.158;2024-03-25T08:02:57;6.23;;;5.03;;
14015;SDS011;7083;48.854;9.158;2024-03-25T08:05:23;6.10;;;5.20;;
14015;SDS011;7083;48.854;9.158;2024-03-25T08:07:48;6.00;;;4.97;;
14015;SDS011;7083;48.854;9.158;2024-03-25T08:12:41;9.43;;;5.37;;
14015;SDS011;7083;48.854;9.158;2024-03-25T08:15:07;9.00;;;4.93;;
14015;SDS011;7083;48.854;9.158;2024-03-25T08:17:34;5.50;;;4.40;;
14015;SDS011;7083;48.854;9.158;2024-03-25T08:19:59;6.30;;;3.77;;
14015;SDS011;7083;48.854;9.158;2024-03-25T08:22:25;5.00;;;3.50;;
14015;SDS011;7083;48.854;9.158;2024-03-25T08:24:51;5.40;;;3.47;;
14015;SDS011;7083;48.854;9.158;2024-03-25T08:27:18;3.63;;;3.20;;
14015;SDS011;7083;48.854;9.158;2024-03-25T08:29:44;2.87;;;2.67;;
14015;SDS011;7083;48.854;9.158;2024-03-25T08:32:09;3.80;;;3.23;;
14015;SDS011;7083;48.854;9.158;2024-03-25T08:34:35;5.13;;;3.47;;
14015;SDS011;7083;48.854;9.158;2024-03-25T08:37:01;3.57;;;3.27;;
14015;SDS011;7083;48.854;9.158;2024-03-25T08:39:27;3.70;;;2.97;;
14015;SDS011;7083;48.854;9.158;2024-03-25T08:41:53;3.43;;;3.17;;
14015;SDS011;7083;48.854;9.158;2024-03-25T08:44:20;5.23;;;3.60;;
14015;SDS011;7083;48.854;9.158;2024-03-25T08:46:46;6.07;;;3.53;;
14015;SDS011;7083;48.854;9.158;2024-03-25T08:49:11;3.73;;;3.23;;
14015;SDS011;7083;48.854;9.158;2024-03-25T08:51:37;7.37;;;3.77;;
14015;SDS011;7083;48.854;9.158;2024-03-25T08:54:03;6.13;;;3.27;;
14015;SDS011;7083;48.854;9.158;2024-03-25T08:56:29;5.03;;;3.27;;
14015;SDS011;7083;48.854;9.158;2024-03-25T08:58:54;3.73;;;3.43;;
14015;SDS011;7083;48.854;9.158;2024-03-25T09:01:21;3.57;;;3.27;;
14015;SDS011;7083;48.854;9.158;2024-03-25T09:03:47;4.00;;;3.33;;
14015;SDS011;7083;48.854;9.158;2024-03-25T09:06:13;3.77;;;3.40;;
14015;SDS011;7083;48.854;9.158;2024-03-25T09:08:39;3.67;;;3.37;;
14015;SDS011;7083;48.854;9.158;2024-03-25T09:11:19;4.10;;;3.07;;
14015;SDS011;7083;48.854;9.158;2024-03-25T09:13:45;4.77;;;3.00;;
14015;SDS011;7083;48.854;9.158;2024-03-25T09:16:11;4.30;;;3.20;;
14015;SDS011;7083;48.854;9.158;2024-03-25T09:18:38;4.57;;;3.60;;
14015;SDS011;7083;48.854;9.158;2024-03-25T09:21:04;4.00;;;3.65;;
14015;SDS011;7083;48.854;9.158;2024-03-25T09:23:30;4.53;;;4.23;;
14015;SDS011;7083;48.854;9.158;2024-03-25T09:25:55;3.70;;;2.90;;
14015;SDS011;7083;48.854;9.158;2024-03-25T09:28:21;5.73;;;3.20;;
14015;SDS011;7083;48.854;9.158;2024-03-25T09:30:47;3.43;;;2.57;;
14015;SDS011;7083;48.854;9.158;2024-03-25T09:33:13;4.80;;;2.97;;
14015;SDS011;7083;48.854;9.158;2024-03-25T09:35:41;3.63;;;2.80;;
14015;SDS011;7083;48.854;9.158;2024-03-25T09:38:06;4.70;;;2.90;;
14015;SDS011;7083;48.854;9.158;2024-03-25T09:40:32;4.57;;;3.57;;
14015;SDS011;7083;48.854;9.158;2024-03-25T09:43:01;4.07;;;3.20;;
14015;SDS011;7083;48.854;9.158;2024-03-25T09:45:28;4.10;;;3.80;;
14015;SDS011;7083;48.854;9.158;2024-03-25T09:47:55;3.63;;;3.33;;
14015;SDS011;7083;48.854;9.158;2024-03-25T09:50:21;3.30;;;2.97;;
14015;SDS011;7083;48.854;9.158;2024-03-25T09:52:49;3.90;;;3.40;;
14015;SDS011;7083;48.854;9.158;2024-03-25T09:55:15;2.70;;;2.50;;
14015;SDS011;7083;48.854;9.158;2024-03-25T09:57:42;3.33;;;2.83;;
14015;SDS011;7083;48.854;9.158;2024-03-25T10:00:08;5.50;;;3.00;;
14015;SDS011;7083;48.854;9.158;2024-03-25T10:02:35;8.13;;;3.13;;
14015;SDS011;7083;48.854;9.158;2024-03-25T10:05:02;3.90;;;3.53;;
14015;SDS011;7083;48.854;9.158;2024-03-25T10:07:29;4.50;;;2.67;;
14015;SDS011;7083;48.854;9.158;2024-03-25T10:09:56;4.67;;;3.30;;
14015;SDS011;7083;48.854;9.158;2024-03-25T10:12:22;5.20;;;3.03;;
14015;SDS011;7083;48.854;9.158;2024-03-25T10:14:47;6.27;;;3.00;;
14015;SDS011;7083;48.854;9.158;2024-03-25T10:17:13;5.30;;;3.37;;
14015;SDS011;7083;48.854;9.158;2024-03-25T10:19:39;2.53;;;2.33;;
14015;SDS011;7083;48.854;9.158;2024-03-25T10:22:05;2.67;;;2.47;;
14015;SDS011;7083;48.854;9.158;2024-03-25T10:24:38;5.47;;;3.20;;
14015;SDS011;7083;48.854;9.158;2024-03-25T10:27:06;3.80;;;2.40;;
14015;SDS011;7083;48.854;9.158;2024-03-25T10:29:35;2.07;;;1.97;;
14015;SDS011;7083;48.854;9.158;2024-03-25T10:32:01;2.60;;;2.40;;
14015;SDS011;7083;48.854;9.158;2024-03-25T10:34:27;4.07;;;2.80;;
14015;SDS011;7083;48.854;9.158;2024-03-25T10:36:56;5.17;;;2.10;;
14015;SDS011;7083;48.854;9.158;2024-03-25T10:39:24;2.93;;;2.00;;
14015;SDS011;7083;48.854;9.158;2024-03-25T10:41:53;4.00;;;2.43;;
14015;SDS011;7083;48.854;9.158;2024-03-25T10:44:22;2.20;;;1.80;;
14015;SDS011;7083;48.854;9.158;2024-03-25T10:46:49;3.23;;;2.93;;
14015;SDS011;7083;48.854;9.158;2024-03-25T10:49:32;2.20;;;2.10;;
14015;SDS011;7083;48.854;9.158;2024-03-25T10:52:00;3.83;;;2.60;;
14015;SDS011;7083;48.854;9.158;2024-03-25T10:54:28;2.20;;;2.10;;
14015;SDS011;7083;48.854;9.158;2024-03-25T10:56:55;2.40;;;2.20;;
14015;SDS011;7083;48.854;9.158;2024-03-25T10:59:24;2.70;;;2.50;;
14015;SDS011;7083;48.854;9.158;2024-03-25T11:01:51;2.57;;;2.37;;
14015;SDS011;7083;48.854;9.158;2024-03-25T11:04:17;2.47;;;2.27;;
14015;SDS011;7083;48.854;9.158;2024-03-25T11:06:43;2.93;;;2.60;;
14015;SDS011;7083;48.854;9.158;2024-03-25T11:09:09;4.93;;;2.63;;
14015;SDS011;7083;48.854;9.158;2024-03-25T11:11:35;3.83;;;2.40;;
14015;SDS011;7083;48.854;9.158;2024-03-25T11:14:02;3.37;;;2.40;;
14015;SDS011;7083;48.854;9.158;2024-03-25T11:16:30;2.63;;;2.17;;
14015;SDS011;7083;48.854;9.158;2024-03-25T11:19:00;2.63;;;2.40;;
14015;SDS011;7083;48.854;9.158;2024-03-25T11:21:27;2.13;;;2.00;;
14015;SDS011;7083;48.854;9.158;2024-03-25T11:23:54;3.47;;;2.43;;
14015;SDS011;7083;48.854;9.158;2024-03-25T11:26:20;4.30;;;2.90;;
14015;SDS011;7083;48.854;9.158;2024-03-25T11:28:47;2.60;;;2.40;;
14015;SDS011;7083;48.854;9.158;2024-03-25T11:31:12;2.80;;;2.37;;
14015;SDS011;7083;48.854;9.158;2024-03-25T11:33:40;3.27;;;2.23;;
14015;SDS011;7083;48.854;9.158;2024-03-25T11:36:07;2.87;;;2.50;;
14015;SDS011;7083;48.854;9.158;2024-03-25T11:38:34;2.03;;;1.93;;
14015;SDS011;7083;48.854;9.158;2024-03-25T11:41:00;3.17;;;2.17;;
14015;SDS011;7083;48.854;9.158;2024-03-25T11:43:26;2.53;;;2.33;;
14015;SDS011;7083;48.854;9.158;2024-03-25T11:45:52;2.67;;;2.20;;
14015;SDS011;7083;48.854;9.158;2024-03-25T11:48:18;2.63;;;2.00;;
14015;SDS011;7083;48.854;9.158;2024-03-25T11:50:46;2.30;;;2.10;;
14015;SDS011;7083;48.854;9.158;2024-03-25T11:53:12;2.40;;;2.23;;
14015;SDS011;7083;48.854;9.158;2024-03-25T11:55:38;2.70;;;2.50;;
14015;SDS011;7083;48.854;9.158;2024-03-25T11:58:05;2.50;;;2.30;;
14015;SDS011;7083;48.854;9.158;2024-03-25T12:00:31;2.67;;;2.27;;
14015;SDS011;7083;48.854;9.158;2024-03-25T12:02:57;2.20;;;1.90;;
14015;SDS011;7083;48.854;9.158;2024-03-25T12:05:23;5.30;;;2.53;;
14015;SDS011;7083;48.854;9.158;2024-03-25T12:07:50;2.40;;;2.20;;
14015;SDS011;7083;48.854;9.158;2024-03-25T12:10:16;3.90;;;2.13;;
14015;SDS011;7083;48.854;9.158;2024-03-25T12:13:00;2.17;;;2.07;;
14015;SDS011;7083;48.854;9.158;2024-03-25T12:15:26;3.83;;;2.53;;
14015;SDS011;7083;48.854;9.158;2024-03-25T12:17:51;2.63;;;2.40;;
14015;SDS011;7083;48.854;9.158;2024-03-25T12:20:19;2.73;;;2.20;;
14015;SDS011;7083;48.854;9.158;2024-03-25T12:22:45;2.00;;;1.90;;
14015;SDS011;7083;48.854;9.158;2024-03-25T12:25:12;2.50;;;2.40;;
14015;SDS011;7083;48.854;9.158;2024-03-25T12:27:38;3.73;;;2.10;;
14015;SDS011;7083;48.854;9.158;2024-03-25T12:30:04;2.27;;;2.17;;
14015;SDS011;7083;48.854;9.158;2024-03-25T12:32:36;3.47;;;2.30;;
14015;SDS011;7083;48.854;9.158;2024-03-25T12:35:03;3.03;;;2.73;;
14015;SDS011;7083;48.854;9.158;2024-03-25T12:37:31;2.60;;;2.40;;
14015;SDS011;7083;48.854;9.158;2024-03-25T12:39:57;3.17;;;2.73;;
14015;SDS011;7083;48.854;9.158;2024-03-25T12:42:24;2.17;;;2.07;;
14015;SDS011;7083;48.854;9.158;2024-03-25T12:44:51;3.10;;;2.80;;
14015;SDS011;7083;48.854;9.158;2024-03-25T12:47:16;3.80;;;2.67;;
14015;SDS011;7083;48.854;9.158;2024-03-25T12:49:42;4.07;;;2.50;;
14015;SDS011;7083;48.854;9.158;2024-03-25T12:52:08;4.33;;;2.67;;
14015;SDS011;7083;48.854;9.158;2024-03-25T12:54:34;2.50;;;2.30;;
14015;SDS011;7083;48.854;9.158;2024-03-25T12:57:00;2.50;;;2.10;;
14015;SDS011;7083;48.854;9.158;2024-03-25T12:59:28;3.73;;;2.07;;
14015;SDS011;7083;48.854;9.158;2024-03-25T13:01:53;2.40;;;2.20;;
14015;SDS011;7083;48.854;9.158;2024-03-25T13:04:19;4.00;;;2.33;;
14015;SDS011;7083;48.854;9.158;2024-03-25T13:06:45;3.10;;;2.30;;
14015;SDS011;7083;48.854;9.158;2024-03-25T13:09:11;3.43;;;2.47;;
14015;SDS011;7083;48.854;9.158;2024-03-25T13:11:37;2.13;;;2.00;;
14015;SDS011;7083;48.854;9.158;2024-03-25T13:14:03;2.57;;;2.37;;
14015;SDS011;7083;48.854;9.158;2024-03-25T14:31:38;1.80;;;1.55;;
14015;SDS011;7083;48.854;9.158;2024-03-25T14:37:27;1.40;;;1.20;;
14015;SDS011;7083;48.854;9.158;2024-03-25T14:40:15;1.98;;;1.40;;
14015;SDS011;7083;48.854;9.158;2024-03-25T14:42:46;1.70;;;1.60;;
14015;SDS011;7083;48.854;9.158;2024-03-25T14:45:48;1.20;;;1.10;;
14015;SDS011;7083;48.854;9.158;2024-03-25T14:48:18;1.60;;;1.30;;
14015;SDS011;7083;48.854;9.158;2024-03-25T14:50:47;1.38;;;1.10;;
14015;SDS011;7083;48.854;9.158;2024-03-25T14:53:19;2.95;;;1.65;;
14015;SDS011;7083;48.854;9.158;2024-03-25T14:55:45;2.42;;;1.90;;
14015;SDS011;7083;48.854;9.158;2024-03-25T14:58:11;1.17;;;1.08;;
14015;SDS011;7083;48.854;9.158;2024-03-25T15:00:45;1.10;;;1.10;;
14015;SDS011;7083;48.854;9.158;2024-03-25T15:03:11;1.20;;;1.10;;
14015;SDS011;7083;48.854;9.158;2024-03-25T15:08:26;1.25;;;1.15;;
14015;SDS011;7083;48.854;9.158;2024-03-25T15:10:52;2.03;;;1.30;;
14015;SDS011;7083;48.854;9.158;2024-03-25T15:13:20;1.60;;;1.45;;
14015;SDS011;7083;48.854;9.158;2024-03-25T15:15:45;1.20;;;1.20;;
14015;SDS011;7083;48.854;9.158;2024-03-25T15:18:11;1.63;;;1.40;;
14015;SDS011;7083;48.854;9.158;2024-03-25T15:20:37;2.15;;;1.65;;
14015;SDS011;7083;48.854;9.158;2024-03-25T15:23:03;2.08;;;1.33;;
14015;SDS011;7083;48.854;9.158;2024-03-25T15:28:14;1.63;;;1.52;;
14015;SDS011;7083;48.854;9.158;2024-03-25T15:30:40;1.30;;;1.20;;
14015;SDS011;7083;48.854;9.158;2024-03-25T15:33:06;2.63;;;1.60;;
14015;SDS011;7083;48.854;9.158;2024-03-25T15:35:31;1.77;;;1.10;;
14015;SDS011;7083;48.854;9.158;2024-03-25T15:38:00;1.58;;;1.30;;
14015;SDS011;7083;48.854;9.158;2024-03-25T15:40:26;1.90;;;1.08;;
14015;SDS011;7083;48.854;9.158;2024-03-25T15:42:53;1.17;;;1.17;;
14015;SDS011;7083;48.854;9.158;2024-03-25T15:45:19;1.48;;;1.38;;
14015;SDS011;7083;48.854;9.158;2024-03-25T15:47:44;1.40;;;1.30;;
14015;SDS011;7083;48.854;9.158;2024-03-25T15:50:10;2.20;;;1.65;;
14015;SDS011;7083;48.854;9.158;2024-03-25T15:52:39;3.33;;;1.92;;
14015;SDS011;7083;48.854;9.158;2024-03-25T15:55:05;3.22;;;1.00;;
14015;SDS011;7083;48.854;9.158;2024-03-25T15:57:31;3.00;;;1.38;;
14015;SDS011;7083;48.854;9.158;2024-03-25T15:59:59;1.33;;;1.23;;
14015;SDS011;7083;48.854;9.158;2024-03-25T16:02:24;2.05;;;1.10;;
14015;SDS011;7083;48.854;9.158;2024-03-25T16:04:50;2.63;;;1.27;;
14015;SDS011;7083;48.854;9.158;2024-03-25T16:07:16;4.10;;;1.13;;
14015;SDS011;7083;48.854;9.158;2024-03-25T16:09:45;1.30;;;1.17;;
14015;SDS011;7083;48.854;9.158;2024-03-25T16:12:11;1.63;;;1.50;;
14015;SDS011;7083;48.854;9.158;2024-03-25T16:14:37;1.58;;;1.48;;
14015;SDS011;7083;48.854;9.158;2024-03-25T16:17:04;2.25;;;2.05;;
14015;SDS011;7083;48.854;9.158;2024-03-25T16:19:30;1.27;;;1.27;;
14015;SDS011;7083;48.854;9.158;2024-03-25T16:21:55;1.80;;;1.70;;
14015;SDS011;7083;48.854;9.158;2024-03-25T16:24:21;1.80;;;1.67;;
14015;SDS011;7083;48.854;9.158;2024-03-25T16:26:47;1.80;;;1.70;;
14015;SDS011;7083;48.854;9.158;2024-03-25T16:29:13;2.22;;;1.83;;
14015;SDS011;7083;48.854;9.158;2024-03-25T16:31:39;1.42;;;1.33;;
14015;SDS011;7083;48.854;9.158;2024-03-25T16:34:06;1.70;;;1.60;;
14015;SDS011;7083;48.854;9.158;2024-03-25T16:36:34;2.50;;;2.30;;
14015;SDS011;7083;48.854;9.158;2024-03-25T16:39:00;4.03;;;1.53;;
14015;SDS011;7083;48.854;9.158;2024-03-25T16:41:26;1.40;;;1.30;;
14015;SDS011;7083;48.854;9.158;2024-03-25T16:43:52;1.73;;;1.63;;
14015;SDS011;7083;48.854;9.158;2024-03-25T16:46:23;1.67;;;1.57;;
14015;SDS011;7083;48.854;9.158;2024-03-25T16:48:52;2.13;;;1.97;;
14015;SDS011;7083;48.854;9.158;2024-03-25T16:51:19;3.33;;;1.90;;
14015;SDS011;7083;48.854;9.158;2024-03-25T16:53:45;1.77;;;1.67;;
14015;SDS011;7083;48.854;9.158;2024-03-25T16:56:11;1.87;;;1.60;;
14015;SDS011;7083;48.854;9.158;2024-03-25T16:58:37;3.87;;;1.90;;
14015;SDS011;7083;48.854;9.158;2024-03-25T17:01:03;1.73;;;1.63;;
14015;SDS011;7083;48.854;9.158;2024-03-25T17:03:32;1.43;;;1.43;;
14015;SDS011;7083;48.854;9.158;2024-03-25T17:05:57;2.20;;;2.00;;
14015;SDS011;7083;48.854;9.158;2024-03-25T17:08:25;1.90;;;1.80;;
14015;SDS011;7083;48.854;9.158;2024-03-25T17:10:51;1.97;;;1.87;;
14015;SDS011;7083;48.854;9.158;2024-03-25T17:13:16;1.70;;;1.60;;
14015;SDS011;7083;48.854;9.158;2024-03-25T17:15:42;2.00;;;1.80;;
14015;SDS011;7083;48.854;9.158;2024-03-25T17:18:08;4.73;;;2.00;;
14015;SDS011;7083;48.854;9.158;2024-03-25T17:20:35;2.20;;;2.10;;
14015;SDS011;7083;48.854;9.158;2024-03-25T17:23:00;1.80;;;1.70;;
14015;SDS011;7083;48.854;9.158;2024-03-25T17:25:28;2.43;;;2.00;;
14015;SDS011;7083;48.854;9.158;2024-03-25T17:27:54;1.70;;;1.60;;
14015;SDS011;7083;48.854;9.158;2024-03-25T17:30:20;1.57;;;1.47;;
14015;SDS011;7083;48.854;9.158;2024-03-25T17:32:46;2.10;;;2.00;;
14015;SDS011;7083;48.854;9.158;2024-03-25T17:35:12;2.00;;;1.80;;
14015;SDS011;7083;48.854;9.158;2024-03-25T17:37:38;1.40;;;1.40;;
14015;SDS011;7083;48.854;9.158;2024-03-25T17:40:04;2.50;;;2.27;;
14015;SDS011;7083;48.854;9.158;2024-03-25T17:42:32;1.50;;;1.43;;
14015;SDS011;7083;48.854;9.158;2024-03-25T17:44:58;3.07;;;1.90;;
14015;SDS011;7083;48.854;9.158;2024-03-25T17:47:24;2.37;;;1.80;;
14015;SDS011;7083;48.854;9.158;2024-03-25T17:49:50;1.63;;;1.50;;
14015;SDS011;7083;48.854;9.158;2024-03-25T17:52:15;2.07;;;1.90;;
14015;SDS011;7083;48.854;9.158;2024-03-25T17:54:41;2.10;;;1.90;;
14015;SDS011;7083;48.854;9.158;2024-03-25T17:57:07;1.80;;;1.63;;
14015;SDS011;7083;48.854;9.158;2024-03-25T17:59:34;2.10;;;2.00;;
14015;SDS011;7083;48.854;9.158;2024-03-25T18:02:01;2.13;;;2.03;;
14015;SDS011;7083;48.854;9.158;2024-03-25T18:04:26;3.27;;;2.30;;
14015;SDS011;7083;48.854;9.158;2024-03-25T18:06:52;3.53;;;2.50;;
14015;SDS011;7083;48.854;9.158;2024-03-25T18:09:18;2.40;;;2.20;;
14015;SDS011;7083;48.854;9.158;2024-03-25T18:11:44;2.40;;;2.20;;
14015;SDS011;7083;48.854;9.158;2024-03-25T18:14:10;2.40;;;2.20;;
14015;SDS011;7083;48.854;9.158;2024-03-25T18:16:37;2.30;;;2.10;;
14015;SDS011;7083;48.854;9.158;2024-03-25T18:19:03;2.40;;;2.00;;
14015;SDS011;7083;48.854;9.158;2024-03-25T18:21:29;2.50;;;2.30;;
14015;SDS011;7083;48.854;9.158;2024-03-25T18:23:54;2.00;;;1.90;;
14015;SDS011;7083;48.854;9.158;2024-03-25T18:26:20;1.77;;;1.70;;
14015;SDS011;7083;48.854;9.158;2024-03-25T18:28:46;3.03;;;1.93;;
14015;SDS011;7083;48.854;9.158;2024-03-25T18:31:12;4.70;;;2.57;;
14015;SDS011;7083;48.854;9.158;2024-03-25T18:33:39;2.40;;;1.90;;
14015;SDS011;7083;48.854;9.158;2024-03-25T18:36:05;2.30;;;2.10;;
14015;SDS011;7083;48.854;9.158;2024-03-25T18:38:31;3.70;;;2.10;;
14015;SDS011;7083;48.854;9.158;2024-03-25T18:40:57;2.30;;;2.10;;
14015;SDS011;7083;48.854;9.158;2024-03-25T18:43:22;1.93;;;1.83;;
14015;SDS011;7083;48.854;9.158;2024-03-25T18:45:48;3.23;;;2.53;;
14015;SDS011;7083;48.854;9.158;2024-03-25T18:48:14;2.50;;;2.30;;
14015;SDS011;7083;48.854;9.158;2024-03-25T18:50:41;2.50;;;2.23;;
14015;SDS011;7083;48.854;9.158;2024-03-25T18:53:07;3.07;;;2.23;;
14015;SDS011;7083;48.854;9.158;2024-03-25T18:55:33;2.73;;;2.00;;
14015;SDS011;7083;48.854;9.158;2024-03-25T18:57:59;2.30;;;1.90;;
14015;SDS011;7083;48.854;9.158;2024-03-25T19:00:25;1.73;;;1.70;;
14015;SDS011;7083;48.854;9.158;2024-03-25T19:02:50;2.30;;;2.20;;
14015;SDS011;7083;48.854;9.158;2024-03-25T19:05:16;2.90;;;2.60;;
14015;SDS011;7083;48.854;9.158;2024-03-25T19:07:43;2.80;;;2.60;;
14015;SDS011;7083;48.854;9.158;2024-03-25T19:10:09;2.70;;;2.50;;
14015;SDS011;7083;48.854;9.158;2024-03-25T19:12:35;2.60;;;2.40;;
14015;SDS011;7083;48.854;9.158;2024-03-25T19:15:01;3.03;;;2.30;;
14015;SDS011;7083;48.854;9.158;2024-03-25T19:17:26;3.07;;;2.57;;
14015;SDS011;7083;48.854;9.158;2024-03-25T19:19:52;2.43;;;2.30;;
14015;SDS011;7083;48.854;9.158;2024-03-25T19:22:18;2.50;;;2.30;;
14015;SDS011;7083;48.854;9.158;2024-03-25T19:24:45;2.17;;;2.07;;
14015;SDS011;7083;48.854;9.158;2024-03-25T19:27:11;2.27;;;2.17;;
14015;SDS011;7083;48.854;9.158;2024-03-25T19:29:37;2.57;;;2.20;;
14015;SDS011;7083;48.854;9.158;2024-03-25T19:32:03;3.30;;;2.70;;
14015;SDS011;7083;48.854;9.158;2024-03-25T19:34:29;3.30;;;2.87;;
14015;SDS011;7083;48.854;9.158;2024-03-25T19:36:55;2.30;;;2.17;;
14015;SDS011;7083;48.854;9.158;2024-03-25T19:39:21;2.73;;;2.63;;
14015;SDS011;7083;48.854;9.158;2024-03-25T19:41:48;2.47;;;2.27;;
14015;SDS011;7083;48.854;9.158;2024-03-25T19:44:13;3.30;;;2.77;;
14015;SDS011;7083;48.854;9.158;2024-03-25T19:46:39;2.83;;;2.63;;
14015;SDS011;7083;48.854;9.158;2024-03-25T19:49:05;2.97;;;2.70;;
14015;SDS011;7083;48.854;9.158;2024-03-25T19:51:31;2.70;;;2.50;;
14015;SDS011;7083;48.854;9.158;2024-03-25T19:53:56;2.50;;;2.30;;
14015;SDS011;7083;48.854;9.158;2024-03-25T19:56:22;2.87;;;2.60;;
14015;SDS011;7083;48.854;9.158;2024-03-25T19:58:49;3.70;;;2.90;;
14015;SDS011;7083;48.854;9.158;2024-03-25T20:01:15;2.90;;;2.70;;
14015;SDS011;7083;48.854;9.158;2024-03-25T20:03:42;4.80;;;2.53;;
14015;SDS011;7083;48.854;9.158;2024-03-25T20:06:07;3.03;;;2.80;;
14015;SDS011;7083;48.854;9.158;2024-03-25T20:08:33;3.50;;;2.60;;
14015;SDS011;7083;48.854;9.158;2024-03-25T20:10:59;2.90;;;2.80;;
14015;SDS011;7083;48.854;9.158;2024-03-25T20:13:25;3.10;;;2.90;;
14015;SDS011;7083;48.854;9.158;2024-03-25T20:15:53;4.30;;;2.37;;
14015;SDS011;7083;48.854;9.158;2024-03-25T20:18:18;2.23;;;2.13;;
14015;SDS011;7083;48.854;9.158;2024-03-25T20:20:44;3.17;;;2.90;;
14015;SDS011;7083;48.854;9.158;2024-03-25T20:23:11;3.27;;;2.60;;
14015;SDS011;7083;48.854;9.158;2024-03-25T20:25:38;3.17;;;2.93;;
14015;SDS011;7083;48.854;9.158;2024-03-25T20:28:04;6.93;;;3.67;;
14015;SDS011;7083;48.854;9.158;2024-03-25T20:30:30;3.03;;;2.83;;
14015;SDS011;7083;48.854;9.158;2024-03-25T20:32:57;3.73;;;2.73;;
14015;SDS011;7083;48.854;9.158;2024-03-25T20:35:23;2.67;;;2.47;;
14015;SDS011;7083;48.854;9.158;2024-03-25T20:37:49;3.50;;;2.83;;
14015;SDS011;7083;48.854;9.158;2024-03-25T20:40:15;3.03;;;2.83;;
14015;SDS011;7083;48.854;9.158;2024-03-25T20:42:40;3.37;;;3.07;;